Time;durP1;ratioP1;P1;durP2;ratioP2;P2;SDS_P1;SDS_P2;PMS_P1;PMS_P2;Temp;Humidity;BMP_temperature;BMP_pressure;BME280_temperature;BME280_humidity;BME280_pressure;Samples;Min_cycle;Max_cycle;Signal;HPM_P1;HPM_P2
2022/04/03 00:02:19;;;;;;;5.07;3.33;;;;;;;;;;8222749;28;20300;-70
2022/04/03 00:06:19;;;;;;;4.93;3.50;;;;;;;;;;8226555;28;20085;-72
2022/04/03 00:10:19;;;;;;;3.90;3.60;;;;;;;;;;8221728;28;20062;-72
2022/04/03 00:14:19;;;;;;;5.00;3.47;;;;;;;;;;8227153;28;20133;-72
2022/04/03 00:18:20;;;;;;;3.70;3.05;;;;;;;;;;8219108;28;20112;-71
2022/04/03 00:22:20;;;;;;;3.50;3.20;;;;;;;;;;8218083;28;20038;-72
2022/04/03 00:26:20;;;;;;;3.35;2.95;;;;;;;;;;8219075;28;20286;-72
2022/04/03 00:30:20;;;;;;;6.35;3.33;;;;;;;;;;8215715;28;20019;-72
2022/04/03 00:34:21;;;;;;;5.60;3.50;;;;;;;;;;8218298;28;20030;-72
2022/04/03 00:38:21;;;;;;;4.57;3.45;;;;;;;;;;8234963;28;20305;-72
2022/04/03 00:42:21;;;;;;;3.55;2.90;;;;;;;;;;8218664;28;20031;-72
2022/04/03 00:46:21;;;;;;;5.00;3.40;;;;;;;;;;8219118;28;20894;-72
2022/04/03 00:50:22;;;;;;;4.03;3.63;;;;;;;;;;8220231;28;20039;-72
2022/04/03 00:54:22;;;;;;;6.78;3.13;;;;;;;;;;8218208;28;20357;-72
2022/04/03 00:58:23;;;;;;;3.30;2.95;;;;;;;;;;8218530;28;20026;-72
2022/04/03 01:02:23;;;;;;;4.57;2.90;;;;;;;;;;8217844;28;20042;-72
2022/04/03 01:06:23;;;;;;;5.18;3.50;;;;;;;;;;8221692;28;20019;-72
2022/04/03 01:10:23;;;;;;;3.92;3.13;;;;;;;;;;8221223;28;20033;-72
2022/04/03 01:14:30;;;;;;;4.53;2.77;;;;;;;;;;8226572;28;20030;-72
2022/04/03 01:18:30;;;;;;;4.07;2.97;;;;;;;;;;8233636;28;20278;-72
2022/04/03 01:22:31;;;;;;;3.10;2.80;;;;;;;;;;8231034;28;20486;-71
2022/04/03 01:26:31;;;;;;;5.07;3.15;;;;;;;;;;8233890;28;20038;-72
2022/04/03 01:30:31;;;;;;;3.45;2.80;;;;;;;;;;8230650;28;20344;-72
2022/04/03 01:34:31;;;;;;;4.35;3.00;;;;;;;;;;8232527;28;20038;-72
2022/04/03 01:38:31;;;;;;;4.88;3.40;;;;;;;;;;8231366;28;20053;-71
2022/04/03 01:42:32;;;;;;;4.68;3.30;;;;;;;;;;8229020;28;20027;-72
2022/04/03 01:46:32;;;;;;;3.30;2.70;;;;;;;;;;8227152;28;20034;-71
2022/04/03 01:50:32;;;;;;;4.97;3.33;;;;;;;;;;8230149;28;20038;-72
2022/04/03 01:54:33;;;;;;;5.32;3.20;;;;;;;;;;8226954;28;20030;-72
2022/04/03 01:58:33;;;;;;;3.88;3.25;;;;;;;;;;8226767;28;20494;-72
2022/04/03 02:02:33;;;;;;;3.85;3.25;;;;;;;;;;8224959;28;20062;-72
2022/04/03 02:06:34;;;;;;;6.25;3.10;;;;;;;;;;8226645;28;20034;-72
2022/04/03 02:10:35;;;;;;;3.80;3.03;;;;;;;;;;8224994;28;20710;-72
2022/04/03 02:14:35;;;;;;;3.97;2.63;;;;;;;;;;8223955;28;20387;-72
2022/04/03 02:18:36;;;;;;;4.30;2.80;;;;;;;;;;8224364;28;20069;-72
2022/04/03 02:22:36;;;;;;;4.07;3.05;;;;;;;;;;8223220;28;20030;-72
2022/04/03 02:26:36;;;;;;;4.20;2.85;;;;;;;;;;8222326;28;20778;-72
2022/04/03 02:30:36;;;;;;;5.60;3.08;;;;;;;;;;8225656;28;20073;-72
2022/04/03 02:34:37;;;;;;;3.28;2.97;;;;;;;;;;8224303;28;20613;-72
2022/04/03 02:38:37;;;;;;;3.30;2.90;;;;;;;;;;8224082;28;20067;-72
2022/04/03 02:42:37;;;;;;;3.60;3.08;;;;;;;;;;8225836;28;20339;-72
2022/04/03 02:46:37;;;;;;;3.67;2.72;;;;;;;;;;8226483;28;20039;-72
2022/04/03 02:50:38;;;;;;;4.28;2.97;;;;;;;;;;8224456;28;20031;-72
2022/04/03 02:54:38;;;;;;;3.35;2.90;;;;;;;;;;8231099;28;20042;-71
2022/04/03 02:58:38;;;;;;;4.40;3.05;;;;;;;;;;8230842;28;20031;-72
2022/04/03 03:02:38;;;;;;;3.90;3.05;;;;;;;;;;8229146;28;20154;-71
2022/04/03 03:06:38;;;;;;;5.57;3.17;;;;;;;;;;8229848;28;20030;-71
2022/04/03 03:10:39;;;;;;;4.03;2.70;;;;;;;;;;8231065;28;20037;-72
2022/04/03 03:14:39;;;;;;;4.10;3.03;;;;;;;;;;8230344;28;20022;-72
2022/04/03 03:18:39;;;;;;;3.38;2.78;;;;;;;;;;8231128;28;20037;-72
2022/04/03 03:22:39;;;;;;;3.70;2.85;;;;;;;;;;8230499;28;20018;-72
2022/04/03 03:26:40;;;;;;;4.15;3.28;;;;;;;;;;8228742;28;20041;-72
2022/04/03 03:30:40;;;;;;;4.10;3.00;;;;;;;;;;8229108;28;20050;-72
2022/04/03 03:34:40;;;;;;;3.17;2.88;;;;;;;;;;8232197;28;20026;-72
2022/04/03 03:38:40;;;;;;;5.03;3.10;;;;;;;;;;8230448;28;20172;-71
2022/04/03 03:42:44;;;;;;;4.32;3.03;;;;;;;;;;8231127;28;20064;-71
2022/04/03 03:46:44;;;;;;;4.28;2.75;;;;;;;;;;8228685;28;20984;-71
2022/04/03 03:50:45;;;;;;;2.67;2.38;;;;;;;;;;8232884;28;20049;-71
2022/04/03 03:54:45;;;;;;;3.50;2.92;;;;;;;;;;8231869;28;20026;-72
2022/04/03 03:58:45;;;;;;;5.43;2.60;;;;;;;;;;8231478;28;20019;-71
2022/04/03 04:02:46;;;;;;;2.83;2.58;;;;;;;;;;8233458;28;20084;-71
2022/04/03 04:06:48;;;;;;;2.73;2.53;;;;;;;;;;8229116;28;20018;-71
2022/04/03 04:10:48;;;;;;;3.00;2.70;;;;;;;;;;8229546;28;20285;-72
2022/04/03 04:14:48;;;;;;;2.75;2.53;;;;;;;;;;8229102;28;20029;-72
2022/04/03 04:18:48;;;;;;;3.45;2.70;;;;;;;;;;8223055;28;20979;-71
2022/04/03 04:22:49;;;;;;;4.57;2.78;;;;;;;;;;8226107;28;20042;-71
2022/04/03 04:26:50;;;;;;;4.38;2.67;;;;;;;;;;8238920;28;20039;-71
2022/04/03 04:30:50;;;;;;;5.17;2.93;;;;;;;;;;8223496;28;20037;-71
2022/04/03 04:34:50;;;;;;;3.75;3.00;;;;;;;;;;8225160;28;20273;-71
2022/04/03 04:38:50;;;;;;;3.60;2.50;;;;;;;;;;8237885;28;21165;-71
2022/04/03 04:42:51;;;;;;;2.90;2.40;;;;;;;;;;8223026;28;20085;-72
2022/04/03 04:46:51;;;;;;;2.78;2.50;;;;;;;;;;8224853;28;20138;-71
2022/04/03 04:50:51;;;;;;;3.20;2.67;;;;;;;;;;8224446;28;20026;-71
2022/04/03 04:54:51;;;;;;;3.33;2.90;;;;;;;;;;8225987;28;20029;-71
2022/04/03 04:58:52;;;;;;;5.18;3.60;;;;;;;;;;8224544;28;20027;-71
2022/04/03 05:02:52;;;;;;;4.95;3.30;;;;;;;;;;8222056;28;20026;-71
2022/04/03 05:06:52;;;;;;;5.95;3.40;;;;;;;;;;8223138;28;20025;-71
2022/04/03 05:10:53;;;;;;;9.50;5.68;;;;;;;;;;8220944;28;20038;-69
2022/04/03 05:14:53;;;;;;;8.32;4.50;;;;;;;;;;8229281;28;20030;-69
2022/04/03 05:18:53;;;;;;;5.25;3.88;;;;;;;;;;8229199;28;20561;-69
2022/04/03 05:22:54;;;;;;;5.20;4.10;;;;;;;;;;8230686;28;20133;-69
2022/04/03 05:26:54;;;;;;;5.10;3.40;;;;;;;;;;8229525;28;21075;-68
2022/04/03 05:30:54;;;;;;;7.20;4.97;;;;;;;;;;8230069;28;20471;-69
2022/04/03 05:34:55;;;;;;;11.93;7.55;;;;;;;;;;8228500;28;20030;-68
2022/04/03 05:38:55;;;;;;;14.18;8.15;;;;;;;;;;8228703;28;20030;-69
2022/04/03 05:42:56;;;;;;;7.97;5.20;;;;;;;;;;8228903;28;20714;-68
2022/04/03 05:46:56;;;;;;;5.13;3.75;;;;;;;;;;8227933;28;20355;-69
2022/04/03 05:50:56;;;;;;;4.30;3.70;;;;;;;;;;8230355;28;20026;-69
2022/04/03 05:54:56;;;;;;;5.28;3.53;;;;;;;;;;8227929;28;20041;-69
2022/04/03 05:58:57;;;;;;;4.18;3.38;;;;;;;;;;8229932;28;20023;-68
2022/04/03 06:02:59;;;;;;;3.65;2.97;;;;;;;;;;8229213;28;20031;-68
2022/04/03 06:06:59;;;;;;;3.80;3.20;;;;;;;;;;8230274;28;20813;-69
2022/04/03 06:10:59;;;;;;;4.70;3.00;;;;;;;;;;8229981;28;20030;-68
2022/04/03 06:15:00;;;;;;;4.20;3.40;;;;;;;;;;8229689;28;20074;-69
2022/04/03 06:19:00;;;;;;;3.88;2.67;;;;;;;;;;8226861;28;20038;-69
2022/04/03 06:23:01;;;;;;;3.00;2.35;;;;;;;;;;8228622;28;20462;-69
2022/04/03 06:27:01;;;;;;;3.28;2.80;;;;;;;;;;8227096;28;20048;-69
2022/04/03 06:31:01;;;;;;;4.18;2.53;;;;;;;;;;8227330;28;20577;-69
2022/04/03 06:35:01;;;;;;;3.17;2.60;;;;;;;;;;8230157;28;20053;-69
2022/04/03 06:39:01;;;;;;;4.15;2.70;;;;;;;;;;8228097;28;20038;-70
2022/04/03 06:43:02;;;;;;;4.18;2.83;;;;;;;;;;8229193;28;20037;-70
2022/04/03 06:47:02;;;;;;;2.60;2.40;;;;;;;;;;8230223;28;20030;-70
2022/04/03 06:51:02;;;;;;;3.65;2.78;;;;;;;;;;8228403;28;20425;-70
2022/04/03 06:55:03;;;;;;;8.60;2.92;;;;;;;;;;8230509;28;20673;-70
2022/04/03 06:59:04;;;;;;;3.15;2.60;;;;;;;;;;8226151;28;20037;-70
2022/04/03 07:03:04;;;;;;;3.08;2.42;;;;;;;;;;8232211;28;20137;-70
2022/04/03 07:07:04;;;;;;;3.63;2.80;;;;;;;;;;8234327;28;20872;-70
2022/04/03 07:11:05;;;;;;;3.97;2.70;;;;;;;;;;8232721;28;20145;-70
2022/04/03 07:15:08;;;;;;;4.40;2.42;;;;;;;;;;8232006;28;20022;-70
2022/04/03 07:19:08;;;;;;;4.07;2.53;;;;;;;;;;8227766;28;20027;-70
2022/04/03 07:23:08;;;;;;;2.57;2.37;;;;;;;;;;8226563;28;20069;-70
2022/04/03 07:27:08;;;;;;;3.72;2.33;;;;;;;;;;8225702;28;20019;-70
2022/04/03 07:31:09;;;;;;;2.40;2.10;;;;;;;;;;8224140;28;20042;-70
2022/04/03 07:35:09;;;;;;;2.97;2.30;;;;;;;;;;8226235;28;20148;-70
2022/04/03 07:39:10;;;;;;;4.15;2.00;;;;;;;;;;8225873;28;20289;-70
2022/04/03 07:43:10;;;;;;;2.30;2.10;;;;;;;;;;8224625;28;20035;-70
2022/04/03 07:47:11;;;;;;;3.47;2.10;;;;;;;;;;8227113;28;20047;-70
2022/04/03 07:51:11;;;;;;;2.58;1.95;;;;;;;;;;8226193;28;20700;-70
2022/04/03 07:55:11;;;;;;;3.28;2.35;;;;;;;;;;8227442;28;20109;-70
2022/04/03 07:59:11;;;;;;;3.80;2.17;;;;;;;;;;8226423;28;20491;-70
2022/04/03 08:03:12;;;;;;;3.15;2.10;;;;;;;;;;8227620;28;20990;-70
2022/04/03 08:07:12;;;;;;;4.45;2.22;;;;;;;;;;8227273;28;20030;-70
2022/04/03 08:11:12;;;;;;;2.28;2.08;;;;;;;;;;8227033;28;20579;-70
2022/04/03 08:15:13;;;;;;;3.00;2.20;;;;;;;;;;8225119;28;20061;-70
2022/04/03 08:19:14;;;;;;;4.95;2.10;;;;;;;;;;8228456;28;20031;-70
2022/04/03 08:23:14;;;;;;;6.55;2.40;;;;;;;;;;8227367;28;20030;-70
2022/04/03 08:27:15;;;;;;;2.78;2.10;;;;;;;;;;8221482;28;20140;-70
2022/04/03 08:31:15;;;;;;;3.90;2.20;;;;;;;;;;8224171;28;20084;-70
2022/04/03 08:35:17;;;;;;;2.75;2.10;;;;;;;;;;8225099;28;20101;-70
2022/04/03 08:39:17;;;;;;;3.75;2.00;;;;;;;;;;8225265;28;20077;-71
2022/04/03 08:43:18;;;;;;;2.35;1.90;;;;;;;;;;8221651;28;20149;-71
2022/04/03 08:47:19;;;;;;;2.10;1.60;;;;;;;;;;8224798;28;20038;-71
2022/04/03 08:51:19;;;;;;;2.40;1.80;;;;;;;;;;8223555;28;20102;-71
2022/04/03 08:55:20;;;;;;;2.58;1.60;;;;;;;;;;8227644;28;20026;-71
2022/04/03 08:59:21;;;;;;;5.20;1.65;;;;;;;;;;8222725;28;20027;-71
2022/04/03 09:03:21;;;;;;;1.50;1.40;;;;;;;;;;8224142;28;20034;-71
2022/04/03 09:07:21;;;;;;;1.73;1.60;;;;;;;;;;8223807;28;20023;-71
2022/04/03 09:11:27;;;;;;;2.22;1.70;;;;;;;;;;8223674;28;20089;-70
2022/04/03 09:15:27;;;;;;;2.35;1.60;;;;;;;;;;8225695;28;20035;-70
2022/04/03 09:19:32;;;;;;;1.63;1.40;;;;;;;;;;8223766;28;20097;-70
2022/04/03 09:23:32;;;;;;;2.78;2.30;;;;;;;;;;8224796;28;20030;-70
2022/04/03 09:27:45;;;;;;;1.67;1.53;;;;;;;;;;8223610;28;20065;-71
2022/04/03 09:31:45;;;;;;;1.92;1.33;;;;;;;;;;8222345;28;20368;-71
2022/04/03 09:36:02;;;;;;;1.73;1.45;;;;;;;;;;8227077;28;20475;-71
2022/04/03 09:40:03;;;;;;;1.52;1.40;;;;;;;;;;8233486;28;20037;-70
2022/04/03 09:44:14;;;;;;;3.47;1.40;;;;;;;;;;8230283;28;20018;-71
2022/04/03 09:48:19;;;;;;;2.70;1.40;;;;;;;;;;8230295;28;20097;-71
2022/04/03 09:52:31;;;;;;;1.60;1.50;;;;;;;;;;8229549;28;20030;-71
2022/04/03 09:56:34;;;;;;;2.03;1.40;;;;;;;;;;8222333;28;20060;-70
2022/04/03 10:00:37;;;;;;;1.73;1.20;;;;;;;;;;8224796;28;20038;-70
2022/04/03 10:04:38;;;;;;;1.77;1.33;;;;;;;;;;8226135;28;20023;-70
2022/04/03 10:08:38;;;;;;;1.85;1.38;;;;;;;;;;8224588;28;20023;-70
2022/04/03 10:12:39;;;;;;;2.05;1.30;;;;;;;;;;8226648;28;20057;-70
2022/04/03 10:16:40;;;;;;;1.13;1.00;;;;;;;;;;8225712;28;20729;-70
2022/04/03 10:20:41;;;;;;;2.80;1.45;;;;;;;;;;8221227;28;20941;-70
2022/04/03 10:24:43;;;;;;;1.30;1.20;;;;;;;;;;8225069;28;20019;-71
2022/04/03 10:28:49;;;;;;;1.50;1.40;;;;;;;;;;8223387;28;20034;-70
2022/04/03 10:32:56;;;;;;;2.50;1.35;;;;;;;;;;8224610;28;20503;-70
2022/04/03 10:36:57;;;;;;;1.40;1.30;;;;;;;;;;8224489;28;20124;-71
2022/04/03 10:41:00;;;;;;;1.60;1.30;;;;;;;;;;8225631;28;20034;-70
2022/04/03 10:45:12;;;;;;;1.37;1.27;;;;;;;;;;8223394;28;20034;-70
2022/04/03 10:49:15;;;;;;;2.55;1.58;;;;;;;;;;8191576;28;20131;-70
2022/04/03 10:53:23;;;;;;;2.35;1.48;;;;;;;;;;8194087;28;20026;-70
2022/04/03 10:57:33;;;;;;;1.67;1.30;;;;;;;;;;8190697;28;20142;-70
2022/04/03 11:01:34;;;;;;;1.88;1.30;;;;;;;;;;8191029;28;20046;-71
2022/04/03 11:05:34;;;;;;;2.08;1.33;;;;;;;;;;8194331;28;20035;-70
2022/04/03 11:09:39;;;;;;;1.50;1.27;;;;;;;;;;8190273;28;20035;-70
2022/04/03 11:13:40;;;;;;;1.52;1.40;;;;;;;;;;8190558;28;20575;-70
2022/04/03 11:17:48;;;;;;;2.30;1.23;;;;;;;;;;8191338;28;20464;-70
2022/04/03 11:21:48;;;;;;;1.30;1.20;;;;;;;;;;8189589;28;20105;-70
2022/04/03 11:25:48;;;;;;;1.50;1.40;;;;;;;;;;8189741;28;20030;-70
2022/04/03 11:29:49;;;;;;;2.30;1.30;;;;;;;;;;8193193;28;20031;-71
2022/04/03 11:33:49;;;;;;;1.58;1.48;;;;;;;;;;8213623;28;20039;-70
2022/04/03 11:37:50;;;;;;;2.10;1.33;;;;;;;;;;8200513;28;20027;-70
2022/04/03 11:41:50;;;;;;;1.92;1.27;;;;;;;;;;8199561;28;20033;-70
2022/04/03 11:45:55;;;;;;;2.58;1.30;;;;;;;;;;8201150;28;20046;-70
2022/04/03 11:50:05;;;;;;;1.52;1.42;;;;;;;;;;8219995;28;20076;-70
2022/04/03 11:54:06;;;;;;;1.40;1.30;;;;;;;;;;8219639;28;20030;-70
2022/04/03 11:58:06;;;;;;;1.30;1.20;;;;;;;;;;8219788;28;20845;-70
2022/04/03 12:02:09;;;;;;;1.48;1.38;;;;;;;;;;8222058;28;20038;-70
2022/04/03 12:06:17;;;;;;;1.40;1.30;;;;;;;;;;8219370;28;20030;-70
2022/04/03 12:10:27;;;;;;;1.60;1.42;;;;;;;;;;8221501;28;20046;-70
2022/04/03 12:14:31;;;;;;;1.30;1.20;;;;;;;;;;8220927;28;20018;-70
2022/04/03 12:18:45;;;;;;;1.80;1.33;;;;;;;;;;8221104;28;20030;-70
2022/04/03 12:22:49;;;;;;;2.10;1.42;;;;;;;;;;8221970;28;20056;-70
2022/04/03 12:26:49;;;;;;;1.60;1.43;;;;;;;;;;8219861;28;20045;-70
2022/04/03 12:30:56;;;;;;;1.73;1.40;;;;;;;;;;8218222;28;20050;-70
2022/04/03 12:34:57;;;;;;;1.60;1.15;;;;;;;;;;8220572;28;20026;-70
2022/04/03 12:38:57;;;;;;;2.03;1.27;;;;;;;;;;8220758;28;20050;-70
2022/04/03 12:43:02;;;;;;;1.40;1.30;;;;;;;;;;8221601;28;20045;-70
2022/04/03 12:47:10;;;;;;;1.50;1.40;;;;;;;;;;8223005;28;20035;-70
2022/04/03 12:51:11;;;;;;;2.08;1.55;;;;;;;;;;8220928;28;20280;-70
2022/04/03 12:55:20;;;;;;;1.67;1.30;;;;;;;;;;8219882;28;20516;-70
2022/04/03 12:59:21;;;;;;;2.13;1.48;;;;;;;;;;8221315;28;20073;-70
2022/04/03 13:03:30;;;;;;;2.15;1.33;;;;;;;;;;8220288;28;20039;-70
2022/04/03 13:07:30;;;;;;;1.60;1.45;;;;;;;;;;8222304;28;20146;-70
2022/04/03 13:11:30;;;;;;;1.50;1.40;;;;;;;;;;8225408;28;20071;-70
2022/04/03 13:15:31;;;;;;;1.67;1.35;;;;;;;;;;8227832;28;20050;-70
2022/04/03 13:19:38;;;;;;;1.58;1.38;;;;;;;;;;8223338;28;20472;-70
2022/04/03 13:23:38;;;;;;;1.67;1.50;;;;;;;;;;8231329;28;20035;-70
2022/04/03 13:27:38;;;;;;;1.75;1.40;;;;;;;;;;8226176;28;20035;-70
2022/04/03 13:31:39;;;;;;;3.90;1.48;;;;;;;;;;8228450;28;20046;-70
2022/04/03 13:35:39;;;;;;;1.65;1.38;;;;;;;;;;8226217;28;20019;-70
2022/04/03 13:39:40;;;;;;;2.95;1.30;;;;;;;;;;8247264;28;20109;-70
2022/04/03 13:43:41;;;;;;;2.28;1.70;;;;;;;;;;8224896;28;21919;-70
2022/04/03 13:47:41;;;;;;;3.20;1.58;;;;;;;;;;8226331;28;20034;-70
2022/04/03 13:51:41;;;;;;;4.15;1.60;;;;;;;;;;8226199;28;20026;-70
2022/04/03 13:55:41;;;;;;;1.50;1.30;;;;;;;;;;8226327;28;20456;-70
2022/04/03 13:59:41;;;;;;;2.55;1.50;;;;;;;;;;8225085;28;20034;-70
2022/04/03 14:03:43;;;;;;;2.00;1.85;;;;;;;;;;8226575;28;20030;-69
2022/04/03 14:07:43;;;;;;;2.80;1.65;;;;;;;;;;8225466;28;20018;-69
2022/04/03 14:11:43;;;;;;;4.13;1.80;;;;;;;;;;8223784;28;20100;-69
2022/04/03 14:15:43;;;;;;;1.52;1.42;;;;;;;;;;8227020;28;20093;-70
2022/04/03 14:19:44;;;;;;;1.70;1.60;;;;;;;;;;8223242;28;20388;-70
2022/04/03 14:23:44;;;;;;;1.60;1.50;;;;;;;;;;8226291;28;20113;-70
2022/04/03 14:27:44;;;;;;;2.03;1.70;;;;;;;;;;8225999;28;20041;-70
2022/04/03 14:31:44;;;;;;;2.75;1.35;;;;;;;;;;8224356;28;20038;-69
2022/04/03 14:35:45;;;;;;;1.50;1.40;;;;;;;;;;8222976;28;20022;-69
2022/04/03 14:39:45;;;;;;;2.00;1.80;;;;;;;;;;8226583;28;20034;-69
2022/04/03 14:43:46;;;;;;;1.95;1.70;;;;;;;;;;8224225;28;20038;-69
2022/04/03 14:47:46;;;;;;;2.35;1.50;;;;;;;;;;8223799;28;20497;-69
2022/04/03 14:51:48;;;;;;;3.28;1.42;;;;;;;;;;8226346;28;20687;-69
2022/04/03 14:55:48;;;;;;;1.98;1.58;;;;;;;;;;8221176;28;20026;-69
2022/04/03 14:59:49;;;;;;;1.45;1.35;;;;;;;;;;8223033;28;20034;-69
2022/04/03 15:03:49;;;;;;;2.13;1.33;;;;;;;;;;8221944;28;20711;-69
2022/04/03 15:07:51;;;;;;;1.60;1.50;;;;;;;;;;8224366;28;20022;-69
2022/04/03 15:11:51;;;;;;;1.40;1.30;;;;;;;;;;8224616;28;20769;-69
2022/04/03 15:15:52;;;;;;;3.50;1.30;;;;;;;;;;8225046;28;20034;-69
2022/04/03 15:19:52;;;;;;;2.05;1.52;;;;;;;;;;8221709;28;20725;-69
2022/04/03 15:23:53;;;;;;;1.40;1.30;;;;;;;;;;8224607;28;20568;-69
2022/04/03 15:27:53;;;;;;;1.85;1.50;;;;;;;;;;8221589;28;20018;-68
2022/04/03 15:31:55;;;;;;;1.52;1.15;;;;;;;;;;8221427;28;20818;-69
2022/04/03 15:35:56;;;;;;;3.22;1.60;;;;;;;;;;8223479;28;20089;-69
2022/04/03 15:39:56;;;;;;;2.03;1.60;;;;;;;;;;8224625;28;20709;-69
2022/04/03 15:43:56;;;;;;;2.00;1.55;;;;;;;;;;8225986;28;20022;-69
2022/04/03 15:48:00;;;;;;;1.70;1.45;;;;;;;;;;8230707;28;20412;-69
2022/04/03 15:52:00;;;;;;;2.05;1.40;;;;;;;;;;8232694;28;20161;-69
2022/04/03 15:56:00;;;;;;;1.58;1.48;;;;;;;;;;8232421;28;20026;-69
2022/04/03 16:00:01;;;;;;;1.15;1.10;;;;;;;;;;8231007;28;20064;-69
2022/04/03 16:04:04;;;;;;;2.47;1.33;;;;;;;;;;8228533;28;20031;-68
2022/04/03 16:08:04;;;;;;;1.73;1.40;;;;;;;;;;8230002;28;20030;-69
2022/04/03 16:12:04;;;;;;;1.52;1.42;;;;;;;;;;8228899;28;20022;-69
2022/04/03 16:16:05;;;;;;;2.17;1.30;;;;;;;;;;8224234;28;20040;-69
2022/04/03 16:20:05;;;;;;;1.65;1.35;;;;;;;;;;8225015;28;20420;-68
2022/04/03 16:24:05;;;;;;;2.03;1.45;;;;;;;;;;8224652;28;20528;-69
2022/04/03 16:28:10;;;;;;;1.42;1.30;;;;;;;;;;8226951;28;20567;-68
2022/04/03 16:32:10;;;;;;;;;;;;;;;;;;8222699;28;20404;-68
2022/04/03 16:36:10;;;;;;;1.30;1.20;;;;;;;;;;8225611;28;19975;-68
2022/04/03 16:40:11;;;;;;;2.15;1.30;;;;;;;;;;8222750;28;20107;-69
2022/04/03 16:44:11;;;;;;;1.50;1.40;;;;;;;;;;8228485;28;20027;-69
2022/04/03 16:48:12;;;;;;;1.42;1.33;;;;;;;;;;8234373;28;20046;-69
2022/04/03 16:52:12;;;;;;;1.58;1.33;;;;;;;;;;8230404;28;20860;-69
2022/04/03 16:56:12;;;;;;;2.15;1.35;;;;;;;;;;8232685;28;20629;-68
2022/04/03 17:00:13;;;;;;;1.30;1.20;;;;;;;;;;8229866;28;20034;-69
2022/04/03 17:04:14;;;;;;;2.78;1.50;;;;;;;;;;8237683;28;20022;-69
2022/04/03 17:08:16;;;;;;;2.38;1.50;;;;;;;;;;8237501;28;20081;-68
2022/04/03 17:12:16;;;;;;;1.48;1.35;;;;;;;;;;8237688;28;20045;-69
2022/04/03 17:16:16;;;;;;;1.67;1.42;;;;;;;;;;8235467;28;20468;-68
2022/04/03 17:20:19;;;;;;;2.07;1.50;;;;;;;;;;8231725;28;20026;-69
2022/04/03 17:24:19;;;;;;;1.77;1.40;;;;;;;;;;8230682;28;20270;-69
2022/04/03 17:28:20;;;;;;;2.77;1.77;;;;;;;;;;8230646;28;20022;-69
2022/04/03 17:32:21;;;;;;;2.97;1.70;;;;;;;;;;8229495;28;20293;-69
2022/04/03 17:36:22;;;;;;;1.42;1.33;;;;;;;;;;8228836;28;20034;-69
2022/04/03 17:40:22;;;;;;;1.80;1.70;;;;;;;;;;8230075;28;20472;-69
2022/04/03 17:44:23;;;;;;;2.22;1.92;;;;;;;;;;8230788;28;20084;-69
2022/04/03 17:48:23;;;;;;;3.15;1.60;;;;;;;;;;8227978;28;20503;-69
2022/04/03 17:52:24;;;;;;;1.75;1.65;;;;;;;;;;8228089;28;20356;-69
2022/04/03 17:56:24;;;;;;;2.42;1.63;;;;;;;;;;8228869;28;20084;-68
2022/04/03 18:00:25;;;;;;;1.85;1.75;;;;;;;;;;8228135;28;20145;-69
2022/04/03 18:04:25;;;;;;;1.88;1.73;;;;;;;;;;8229391;28;20141;-68
2022/04/03 18:08:26;;;;;;;2.33;1.85;;;;;;;;;;8229771;28;20109;-68
2022/04/03 18:12:26;;;;;;;2.30;2.05;;;;;;;;;;8228230;28;20037;-68
2022/04/03 18:16:28;;;;;;;2.25;2.05;;;;;;;;;;8229467;28;20031;-68
2022/04/03 18:20:28;;;;;;;4.63;2.10;;;;;;;;;;8228013;28;20121;-69
2022/04/03 18:24:30;;;;;;;2.30;1.90;;;;;;;;;;8228134;28;20038;-68
2022/04/03 18:28:30;;;;;;;3.03;2.10;;;;;;;;;;8228966;28;20281;-69
2022/04/03 18:32:31;;;;;;;2.57;1.90;;;;;;;;;;8227043;28;20054;-69
2022/04/03 18:36:31;;;;;;;1.95;1.85;;;;;;;;;;8228484;28;20270;-68
2022/04/03 18:40:31;;;;;;;2.15;1.85;;;;;;;;;;8232963;28;20042;-70
2022/04/03 18:44:31;;;;;;;2.88;2.17;;;;;;;;;;8233975;28;20050;-70
2022/04/03 18:48:31;;;;;;;3.90;2.72;;;;;;;;;;8232315;28;20047;-70
2022/04/03 18:52:34;;;;;;;6.40;4.50;;;;;;;;;;8233890;28;20084;-70
2022/04/03 18:56:35;;;;;;;6.80;3.17;;;;;;;;;;8237968;28;20703;-70
2022/04/03 19:00:36;;;;;;;10.82;4.25;;;;;;;;;;8232891;28;20038;-71
2022/04/03 19:04:36;;;;;;;6.50;2.47;;;;;;;;;;8232925;28;20031;-70
2022/04/03 19:08:36;;;;;;;4.17;2.60;;;;;;;;;;8231944;28;20033;-70
2022/04/03 19:12:38;;;;;;;3.78;2.28;;;;;;;;;;8232221;28;20298;-70
2022/04/03 19:16:38;;;;;;;2.53;2.10;;;;;;;;;;8236427;28;20945;-70
2022/04/03 19:20:39;;;;;;;2.33;2.13;;;;;;;;;;8230030;28;20372;-70
2022/04/03 19:24:39;;;;;;;2.78;2.55;;;;;;;;;;8229688;28;20073;-70
2022/04/03 19:28:40;;;;;;;2.45;2.25;;;;;;;;;;8230128;28;20031;-70
2022/04/03 19:32:40;;;;;;;4.70;3.03;;;;;;;;;;8229484;28;20117;-70
2022/04/03 19:36:40;;;;;;;11.85;5.50;;;;;;;;;;8243844;28;20026;-70
2022/04/03 19:40:41;;;;;;;11.68;5.75;;;;;;;;;;8228687;28;20428;-70
2022/04/03 19:44:41;;;;;;;15.77;7.10;;;;;;;;;;8230027;28;20053;-70
2022/04/03 19:48:41;;;;;;;12.98;6.15;;;;;;;;;;8226935;28;20181;-70
2022/04/03 19:52:42;;;;;;;13.13;6.00;;;;;;;;;;8230269;28;20061;-70
2022/04/03 19:56:42;;;;;;;14.45;7.00;;;;;;;;;;8229605;28;20804;-70
2022/04/03 20:00:42;;;;;;;7.93;3.97;;;;;;;;;;8227390;28;20364;-70
2022/04/03 20:04:44;;;;;;;11.05;5.82;;;;;;;;;;8228406;28;20026;-70
2022/04/03 20:08:44;;;;;;;14.10;6.40;;;;;;;;;;8243574;28;20039;-70
2022/04/03 20:12:44;;;;;;;8.57;3.80;;;;;;;;;;8229112;28;20026;-71
2022/04/03 20:16:45;;;;;;;4.57;3.40;;;;;;;;;;8230041;28;20324;-71
2022/04/03 20:20:46;;;;;;;15.73;6.65;;;;;;;;;;8229734;28;20026;-71
2022/04/03 20:24:46;;;;;;;9.65;5.78;;;;;;;;;;8225000;28;20034;-71
2022/04/03 20:28:46;;;;;;;15.63;9.20;;;;;;;;;;8228796;28;20121;-71
2022/04/03 20:32:46;;;;;;;9.48;6.25;;;;;;;;;;8228597;28;20100;-71
2022/04/03 20:36:47;;;;;;;5.82;4.28;;;;;;;;;;8228718;28;20030;-71
2022/04/03 20:40:48;;;;;;;5.40;3.80;;;;;;;;;;8229722;28;20026;-71
2022/04/03 20:44:48;;;;;;;5.40;3.65;;;;;;;;;;8234641;28;20058;-71
2022/04/03 20:48:48;;;;;;;4.20;3.47;;;;;;;;;;8227796;28;20066;-71
2022/04/03 20:52:49;;;;;;;4.55;3.78;;;;;;;;;;8229872;28;20482;-71
2022/04/03 20:56:50;;;;;;;4.50;3.40;;;;;;;;;;8233428;28;20301;-71
2022/04/03 21:00:50;;;;;;;5.13;3.55;;;;;;;;;;8230713;28;20042;-71
2022/04/03 21:04:50;;;;;;;3.78;3.42;;;;;;;;;;8229744;28;20066;-71
2022/04/03 21:08:51;;;;;;;6.07;3.70;;;;;;;;;;8227512;28;20034;-71
2022/04/03 21:12:51;;;;;;;4.97;3.60;;;;;;;;;;8225837;28;20340;-71
2022/04/03 21:16:51;;;;;;;3.85;3.38;;;;;;;;;;8229228;28;20030;-71
2022/04/03 21:20:52;;;;;;;3.60;3.30;;;;;;;;;;8230937;28;20030;-71
2022/04/03 21:24:52;;;;;;;3.72;3.38;;;;;;;;;;8230993;28;20034;-71
2022/04/03 21:28:52;;;;;;;3.70;3.30;;;;;;;;;;8230513;28;20038;-71
2022/04/03 21:32:54;;;;;;;4.00;3.37;;;;;;;;;;8237256;28;20034;-71
2022/04/03 21:36:55;;;;;;;3.80;3.40;;;;;;;;;;8231950;28;20278;-71
2022/04/03 21:40:56;;;;;;;4.00;3.53;;;;;;;;;;8233920;28;20794;-71
2022/04/03 21:44:56;;;;;;;3.95;3.47;;;;;;;;;;8239663;28;20484;-71
2022/04/03 21:48:56;;;;;;;3.70;3.30;;;;;;;;;;8235043;28;20109;-71
2022/04/03 21:52:57;;;;;;;4.70;3.58;;;;;;;;;;8236821;28;20048;-71
2022/04/03 21:56:57;;;;;;;4.53;3.80;;;;;;;;;;8235327;28;20093;-71
2022/04/03 22:01:03;;;;;;;6.73;3.53;;;;;;;;;;8234389;28;20361;-71
2022/04/03 22:05:04;;;;;;;4.90;3.70;;;;;;;;;;8233866;28;20388;-71
2022/04/03 22:09:04;;;;;;;3.85;3.55;;;;;;;;;;8236456;28;20026;-71
2022/04/03 22:13:04;;;;;;;6.07;3.80;;;;;;;;;;8235433;28;20180;-71
2022/04/03 22:17:04;;;;;;;3.90;3.55;;;;;;;;;;8237276;28;20265;-71
2022/04/03 22:21:05;;;;;;;4.18;3.78;;;;;;;;;;8239889;28;20022;-71
2022/04/03 22:25:06;;;;;;;3.90;3.50;;;;;;;;;;8255948;28;20387;-71
2022/04/03 22:29:07;;;;;;;5.35;4.13;;;;;;;;;;8239511;28;20022;-71
2022/04/03 22:33:07;;;;;;;4.25;3.75;;;;;;;;;;8232045;28;20042;-71
2022/04/03 22:37:07;;;;;;;5.05;3.42;;;;;;;;;;8231152;28;20129;-71
2022/04/03 22:41:07;;;;;;;5.82;4.05;;;;;;;;;;8231608;28;20046;-70
2022/04/03 22:45:09;;;;;;;5.10;3.70;;;;;;;;;;8229951;28;20033;-71
2022/04/03 22:49:09;;;;;;;3.97;3.58;;;;;;;;;;8238350;28;20056;-71
2022/04/03 22:53:09;;;;;;;5.82;3.63;;;;;;;;;;8235592;28;20060;-71
2022/04/03 22:57:10;;;;;;;5.28;3.70;;;;;;;;;;8237165;28;20018;-71
2022/04/03 23:01:10;;;;;;;4.60;3.60;;;;;;;;;;8233496;28;20066;-70
2022/04/03 23:05:12;;;;;;;5.90;3.80;;;;;;;;;;8230318;28;20038;-70
2022/04/03 23:09:12;;;;;;;4.90;3.55;;;;;;;;;;8229430;28;20266;-71
2022/04/03 23:13:12;;;;;;;4.35;4.03;;;;;;;;;;8229262;28;20091;-71
2022/04/03 23:17:15;;;;;;;4.75;3.85;;;;;;;;;;8241706;28;20030;-71
2022/04/03 23:21:15;;;;;;;4.68;3.90;;;;;;;;;;8227848;28;20475;-71
2022/04/03 23:25:15;;;;;;;4.38;3.72;;;;;;;;;;8228789;28;20045;-71
2022/04/03 23:29:15;;;;;;;4.27;3.87;;;;;;;;;;8232634;28;20026;-71
2022/04/03 23:33:16;;;;;;;4.47;3.75;;;;;;;;;;8229421;28;20298;-71
2022/04/03 23:37:16;;;;;;;5.57;3.75;;;;;;;;;;8234473;28;20070;-71
2022/04/03 23:41:16;;;;;;;6.60;4.22;;;;;;;;;;8228975;28;20681;-71
2022/04/03 23:45:16;;;;;;;4.95;3.78;;;;;;;;;;8232488;28;20849;-71
2022/04/03 23:49:17;;;;;;;4.40;3.83;;;;;;;;;;8225953;28;20102;-71
2022/04/03 23:53:18;;;;;;;4.40;4.00;;;;;;;;;;8228406;28;20341;-71
2022/04/03 23:57:18;;;;;;;4.07;3.67;;;;;;;;;;8226168;28;20034;-71
